sensor_id;sensor_type;location;lat;lon;timestamp;P1;durP1;ratioP1;P2;durP2;ratioP2
62687;SDS011;48752;51.056;17.056;2023-06-05T00:02:12;5.35;;;2.28;;
62687;SDS011;48752;51.056;17.056;2023-06-05T00:04:37;3.50;;;1.83;;
62687;SDS011;48752;51.056;17.056;2023-06-05T00:07:04;5.05;;;2.17;;
62687;SDS011;48752;51.056;17.056;2023-06-05T00:09:29;7.40;;;2.72;;
62687;SDS011;48752;51.056;17.056;2023-06-05T00:11:55;5.70;;;2.00;;
62687;SDS011;48752;51.056;17.056;2023-06-05T00:14:20;4.90;;;2.40;;
62687;SDS011;48752;51.056;17.056;2023-06-05T00:16:45;6.35;;;2.17;;
62687;SDS011;48752;51.056;17.056;2023-06-05T00:19:11;4.65;;;2.05;;
62687;SDS011;48752;51.056;17.056;2023-06-05T00:21:37;5.57;;;2.22;;
62687;SDS011;48752;51.056;17.056;2023-06-05T00:24:02;4.80;;;1.67;;
62687;SDS011;48752;51.056;17.056;2023-06-05T00:26:27;5.05;;;2.60;;
62687;SDS011;48752;51.056;17.056;2023-06-05T00:28:53;5.47;;;2.42;;
62687;SDS011;48752;51.056;17.056;2023-06-05T00:31:18;5.55;;;2.38;;
62687;SDS011;48752;51.056;17.056;2023-06-05T00:33:44;5.80;;;2.30;;
62687;SDS011;48752;51.056;17.056;2023-06-05T00:36:09;5.35;;;3.08;;
62687;SDS011;48752;51.056;17.056;2023-06-05T00:38:34;3.70;;;2.05;;
62687;SDS011;48752;51.056;17.056;2023-06-05T00:41:01;3.40;;;2.25;;
62687;SDS011;48752;51.056;17.056;2023-06-05T00:43:26;4.53;;;2.70;;
62687;SDS011;48752;51.056;17.056;2023-06-05T00:45:52;6.90;;;2.50;;
62687;SDS011;48752;51.056;17.056;2023-06-05T00:48:20;3.88;;;2.60;;
62687;SDS011;48752;51.056;17.056;2023-06-05T00:50:45;4.43;;;2.78;;
62687;SDS011;48752;51.056;17.056;2023-06-05T00:53:11;5.20;;;2.78;;
62687;SDS011;48752;51.056;17.056;2023-06-05T00:55:36;6.38;;;2.53;;
62687;SDS011;48752;51.056;17.056;2023-06-05T00:58:02;3.88;;;2.47;;
62687;SDS011;48752;51.056;17.056;2023-06-05T01:00:28;3.95;;;2.80;;
62687;SDS011;48752;51.056;17.056;2023-06-05T01:02:53;7.63;;;3.30;;
62687;SDS011;48752;51.056;17.056;2023-06-05T01:05:22;4.70;;;2.28;;
62687;SDS011;48752;51.056;17.056;2023-06-05T01:07:47;3.95;;;2.60;;
62687;SDS011;48752;51.056;17.056;2023-06-05T01:10:13;4.88;;;2.72;;
62687;SDS011;48752;51.056;17.056;2023-06-05T01:12:43;5.07;;;2.90;;
62687;SDS011;48752;51.056;17.056;2023-06-05T01:15:11;7.85;;;2.97;;
62687;SDS011;48752;51.056;17.056;2023-06-05T01:17:36;5.32;;;2.72;;
62687;SDS011;48752;51.056;17.056;2023-06-05T01:20:02;7.68;;;2.65;;
62687;SDS011;48752;51.056;17.056;2023-06-05T01:22:28;4.80;;;2.63;;
62687;SDS011;48752;51.056;17.056;2023-06-05T01:24:53;7.18;;;2.83;;
62687;SDS011;48752;51.056;17.056;2023-06-05T01:27:22;4.28;;;2.55;;
62687;SDS011;48752;51.056;17.056;2023-06-05T01:29:52;2.95;;;2.08;;
62687;SDS011;48752;51.056;17.056;2023-06-05T01:35:03;4.82;;;2.10;;
62687;SDS011;48752;51.056;17.056;2023-06-05T01:37:29;4.88;;;2.38;;
62687;SDS011;48752;51.056;17.056;2023-06-05T01:40:06;3.40;;;2.50;;
62687;SDS011;48752;51.056;17.056;2023-06-05T01:42:32;4.25;;;2.50;;
62687;SDS011;48752;51.056;17.056;2023-06-05T01:44:57;6.13;;;2.53;;
62687;SDS011;48752;51.056;17.056;2023-06-05T01:47:23;4.70;;;2.45;;
62687;SDS011;48752;51.056;17.056;2023-06-05T01:49:49;4.25;;;2.17;;
62687;SDS011;48752;51.056;17.056;2023-06-05T01:52:15;7.00;;;2.72;;
62687;SDS011;48752;51.056;17.056;2023-06-05T01:54:40;5.43;;;2.80;;
62687;SDS011;48752;51.056;17.056;2023-06-05T01:57:07;4.28;;;2.05;;
62687;SDS011;48752;51.056;17.056;2023-06-05T01:59:34;3.80;;;2.17;;
62687;SDS011;48752;51.056;17.056;2023-06-05T02:02:00;6.00;;;2.75;;
62687;SDS011;48752;51.056;17.056;2023-06-05T02:04:25;3.72;;;2.20;;
62687;SDS011;48752;51.056;17.056;2023-06-05T02:06:52;3.70;;;2.50;;
62687;SDS011;48752;51.056;17.056;2023-06-05T02:09:18;3.65;;;2.28;;
62687;SDS011;48752;51.056;17.056;2023-06-05T02:11:43;5.00;;;2.53;;
62687;SDS011;48752;51.056;17.056;2023-06-05T02:14:10;3.67;;;2.67;;
62687;SDS011;48752;51.056;17.056;2023-06-05T02:16:37;5.25;;;2.47;;
62687;SDS011;48752;51.056;17.056;2023-06-05T02:19:03;5.03;;;2.85;;
62687;SDS011;48752;51.056;17.056;2023-06-05T02:21:29;2.47;;;2.10;;
62687;SDS011;48752;51.056;17.056;2023-06-05T02:23:55;3.47;;;2.70;;
62687;SDS011;48752;51.056;17.056;2023-06-05T02:26:22;4.43;;;2.50;;
62687;SDS011;48752;51.056;17.056;2023-06-05T02:28:48;6.25;;;3.03;;
62687;SDS011;48752;51.056;17.056;2023-06-05T02:31:13;4.22;;;2.50;;
62687;SDS011;48752;51.056;17.056;2023-06-05T02:33:41;4.57;;;2.70;;
62687;SDS011;48752;51.056;17.056;2023-06-05T02:36:06;6.05;;;2.67;;
62687;SDS011;48752;51.056;17.056;2023-06-05T02:38:32;7.03;;;3.15;;
62687;SDS011;48752;51.056;17.056;2023-06-05T02:40:57;7.75;;;2.58;;
62687;SDS011;48752;51.056;17.056;2023-06-05T02:43:22;4.63;;;3.30;;
62687;SDS011;48752;51.056;17.056;2023-06-05T02:45:48;4.47;;;2.85;;
62687;SDS011;48752;51.056;17.056;2023-06-05T02:48:14;5.65;;;3.63;;
62687;SDS011;48752;51.056;17.056;2023-06-05T02:50:39;4.93;;;2.83;;
62687;SDS011;48752;51.056;17.056;2023-06-05T02:53:04;5.03;;;2.80;;
62687;SDS011;48752;51.056;17.056;2023-06-05T02:55:29;6.95;;;2.80;;
62687;SDS011;48752;51.056;17.056;2023-06-05T02:57:57;4.55;;;2.75;;
62687;SDS011;48752;51.056;17.056;2023-06-05T03:00:22;9.45;;;3.92;;
62687;SDS011;48752;51.056;17.056;2023-06-05T03:02:48;7.05;;;3.05;;
62687;SDS011;48752;51.056;17.056;2023-06-05T03:05:17;6.85;;;2.88;;
62687;SDS011;48752;51.056;17.056;2023-06-05T03:07:52;6.45;;;2.75;;
62687;SDS011;48752;51.056;17.056;2023-06-05T03:10:20;8.15;;;2.80;;
62687;SDS011;48752;51.056;17.056;2023-06-05T03:12:46;5.55;;;2.35;;
62687;SDS011;48752;51.056;17.056;2023-06-05T03:15:11;5.57;;;3.28;;
62687;SDS011;48752;51.056;17.056;2023-06-05T03:17:37;4.10;;;2.55;;
62687;SDS011;48752;51.056;17.056;2023-06-05T03:20:02;5.43;;;2.80;;
62687;SDS011;48752;51.056;17.056;2023-06-05T03:22:27;6.93;;;2.80;;
62687;SDS011;48752;51.056;17.056;2023-06-05T03:24:53;4.87;;;2.53;;
62687;SDS011;48752;51.056;17.056;2023-06-05T03:27:19;5.97;;;2.78;;
62687;SDS011;48752;51.056;17.056;2023-06-05T03:29:44;7.75;;;2.95;;
62687;SDS011;48752;51.056;17.056;2023-06-05T03:32:09;4.10;;;2.90;;
62687;SDS011;48752;51.056;17.056;2023-06-05T03:34:35;9.73;;;2.90;;
62687;SDS011;48752;51.056;17.056;2023-06-05T03:37:01;3.33;;;2.70;;
62687;SDS011;48752;51.056;17.056;2023-06-05T03:39:27;4.40;;;2.85;;
62687;SDS011;48752;51.056;17.056;2023-06-05T03:41:52;4.22;;;2.80;;
62687;SDS011;48752;51.056;17.056;2023-06-05T03:44:18;6.85;;;2.63;;
62687;SDS011;48752;51.056;17.056;2023-06-05T03:46:43;4.88;;;2.47;;
62687;SDS011;48752;51.056;17.056;2023-06-05T03:49:09;7.13;;;3.78;;
62687;SDS011;48752;51.056;17.056;2023-06-05T03:51:35;5.05;;;3.15;;
62687;SDS011;48752;51.056;17.056;2023-06-05T03:54:00;9.02;;;3.60;;
62687;SDS011;48752;51.056;17.056;2023-06-05T03:56:27;11.50;;;3.75;;
62687;SDS011;48752;51.056;17.056;2023-06-05T03:59:07;7.47;;;3.03;;
62687;SDS011;48752;51.056;17.056;2023-06-05T04:01:43;6.53;;;3.22;;
62687;SDS011;48752;51.056;17.056;2023-06-05T04:04:08;4.55;;;3.38;;
62687;SDS011;48752;51.056;17.056;2023-06-05T04:06:34;9.35;;;3.25;;
62687;SDS011;48752;51.056;17.056;2023-06-05T04:08:59;9.77;;;3.10;;
62687;SDS011;48752;51.056;17.056;2023-06-05T04:11:25;4.53;;;3.13;;
62687;SDS011;48752;51.056;17.056;2023-06-05T04:13:54;4.68;;;2.83;;
62687;SDS011;48752;51.056;17.056;2023-06-05T04:16:21;7.63;;;5.00;;
62687;SDS011;48752;51.056;17.056;2023-06-05T04:18:48;5.97;;;3.03;;
62687;SDS011;48752;51.056;17.056;2023-06-05T04:21:13;8.65;;;3.25;;
62687;SDS011;48752;51.056;17.056;2023-06-05T04:23:39;6.05;;;2.80;;
62687;SDS011;48752;51.056;17.056;2023-06-05T04:26:06;7.88;;;3.17;;
62687;SDS011;48752;51.056;17.056;2023-06-05T04:28:33;7.35;;;3.30;;
62687;SDS011;48752;51.056;17.056;2023-06-05T04:31:01;6.22;;;3.30;;
62687;SDS011;48752;51.056;17.056;2023-06-05T04:33:28;7.40;;;2.95;;
62687;SDS011;48752;51.056;17.056;2023-06-05T04:35:54;4.03;;;2.90;;
62687;SDS011;48752;51.056;17.056;2023-06-05T04:38:21;6.32;;;2.85;;
62687;SDS011;48752;51.056;17.056;2023-06-05T04:40:49;5.10;;;2.67;;
62687;SDS011;48752;51.056;17.056;2023-06-05T04:43:23;4.40;;;2.60;;
62687;SDS011;48752;51.056;17.056;2023-06-05T04:45:50;6.60;;;3.53;;
62687;SDS011;48752;51.056;17.056;2023-06-05T04:48:16;4.45;;;3.38;;
62687;SDS011;48752;51.056;17.056;2023-06-05T04:50:41;4.70;;;2.47;;
62687;SDS011;48752;51.056;17.056;2023-06-05T04:53:08;4.82;;;2.13;;
62687;SDS011;48752;51.056;17.056;2023-06-05T04:55:35;6.68;;;2.40;;
62687;SDS011;48752;51.056;17.056;2023-06-05T04:58:01;4.80;;;3.30;;
62687;SDS011;48752;51.056;17.056;2023-06-05T05:00:29;8.23;;;3.60;;
62687;SDS011;48752;51.056;17.056;2023-06-05T05:02:54;9.20;;;3.38;;
62687;SDS011;48752;51.056;17.056;2023-06-05T05:05:21;6.50;;;3.33;;
62687;SDS011;48752;51.056;17.056;2023-06-05T05:07:47;9.75;;;3.60;;
62687;SDS011;48752;51.056;17.056;2023-06-05T05:10:14;7.53;;;3.00;;
62687;SDS011;48752;51.056;17.056;2023-06-05T05:12:41;7.13;;;3.00;;
62687;SDS011;48752;51.056;17.056;2023-06-05T05:15:07;9.90;;;2.90;;
62687;SDS011;48752;51.056;17.056;2023-06-05T05:17:32;10.40;;;3.75;;
62687;SDS011;48752;51.056;17.056;2023-06-05T05:20:04;7.65;;;3.22;;
62687;SDS011;48752;51.056;17.056;2023-06-05T05:22:33;9.50;;;3.30;;
62687;SDS011;48752;51.056;17.056;2023-06-05T05:25:01;8.27;;;2.90;;
62687;SDS011;48752;51.056;17.056;2023-06-05T05:27:32;6.75;;;3.35;;
62687;SDS011;48752;51.056;17.056;2023-06-05T05:29:58;8.18;;;2.90;;
62687;SDS011;48752;51.056;17.056;2023-06-05T05:32:24;7.25;;;2.88;;
62687;SDS011;48752;51.056;17.056;2023-06-05T05:34:51;6.15;;;2.85;;
62687;SDS011;48752;51.056;17.056;2023-06-05T05:37:16;8.15;;;2.97;;
62687;SDS011;48752;51.056;17.056;2023-06-05T05:39:42;4.80;;;2.67;;
62687;SDS011;48752;51.056;17.056;2023-06-05T05:42:07;6.53;;;2.97;;
62687;SDS011;48752;51.056;17.056;2023-06-05T05:44:34;5.68;;;3.38;;
62687;SDS011;48752;51.056;17.056;2023-06-05T05:46:59;6.85;;;3.10;;
62687;SDS011;48752;51.056;17.056;2023-06-05T05:49:24;5.57;;;2.70;;
62687;SDS011;48752;51.056;17.056;2023-06-05T05:51:50;7.47;;;2.72;;
62687;SDS011;48752;51.056;17.056;2023-06-05T05:54:15;8.27;;;2.35;;
62687;SDS011;48752;51.056;17.056;2023-06-05T05:56:40;8.80;;;2.80;;
62687;SDS011;48752;51.056;17.056;2023-06-05T05:59:07;6.45;;;2.85;;
62687;SDS011;48752;51.056;17.056;2023-06-05T06:01:32;9.97;;;3.10;;
62687;SDS011;48752;51.056;17.056;2023-06-05T06:03:57;7.23;;;2.70;;
62687;SDS011;48752;51.056;17.056;2023-06-05T06:06:23;9.10;;;2.80;;
62687;SDS011;48752;51.056;17.056;2023-06-05T06:08:48;8.83;;;3.07;;
62687;SDS011;48752;51.056;17.056;2023-06-05T06:11:13;5.20;;;2.42;;
62687;SDS011;48752;51.056;17.056;2023-06-05T06:13:38;6.20;;;2.73;;
62687;SDS011;48752;51.056;17.056;2023-06-05T06:16:04;11.95;;;2.80;;
62687;SDS011;48752;51.056;17.056;2023-06-05T06:18:29;6.03;;;2.60;;
62687;SDS011;48752;51.056;17.056;2023-06-05T06:20:54;5.60;;;2.53;;
62687;SDS011;48752;51.056;17.056;2023-06-05T06:23:20;6.55;;;2.80;;
62687;SDS011;48752;51.056;17.056;2023-06-05T06:25:45;4.05;;;2.28;;
62687;SDS011;48752;51.056;17.056;2023-06-05T06:28:11;6.50;;;2.30;;
62687;SDS011;48752;51.056;17.056;2023-06-05T06:30:37;8.93;;;2.97;;
62687;SDS011;48752;51.056;17.056;2023-06-05T06:33:02;3.57;;;2.20;;
62687;SDS011;48752;51.056;17.056;2023-06-05T06:35:29;8.98;;;2.42;;
62687;SDS011;48752;51.056;17.056;2023-06-05T06:37:54;11.45;;;2.70;;
62687;SDS011;48752;51.056;17.056;2023-06-05T06:40:21;4.95;;;2.17;;
62687;SDS011;48752;51.056;17.056;2023-06-05T06:42:47;9.75;;;2.40;;
62687;SDS011;48752;51.056;17.056;2023-06-05T06:45:12;4.90;;;3.20;;
62687;SDS011;48752;51.056;17.056;2023-06-05T06:47:37;8.70;;;2.93;;
62687;SDS011;48752;51.056;17.056;2023-06-05T06:50:03;6.07;;;1.92;;
62687;SDS011;48752;51.056;17.056;2023-06-05T06:52:28;7.22;;;2.47;;
62687;SDS011;48752;51.056;17.056;2023-06-05T06:54:54;6.43;;;2.17;;
62687;SDS011;48752;51.056;17.056;2023-06-05T06:57:19;8.95;;;2.50;;
62687;SDS011;48752;51.056;17.056;2023-06-05T06:59:44;6.00;;;2.83;;
62687;SDS011;48752;51.056;17.056;2023-06-05T07:02:11;8.40;;;2.95;;
62687;SDS011;48752;51.056;17.056;2023-06-05T07:04:38;6.03;;;2.30;;
62687;SDS011;48752;51.056;17.056;2023-06-05T07:07:04;5.65;;;2.63;;
62687;SDS011;48752;51.056;17.056;2023-06-05T07:09:29;7.55;;;3.00;;
62687;SDS011;48752;51.056;17.056;2023-06-05T07:11:54;4.87;;;2.50;;
62687;SDS011;48752;51.056;17.056;2023-06-05T07:14:20;4.80;;;2.20;;
62687;SDS011;48752;51.056;17.056;2023-06-05T07:16:46;8.98;;;2.38;;
62687;SDS011;48752;51.056;17.056;2023-06-05T07:19:13;14.13;;;2.67;;
62687;SDS011;48752;51.056;17.056;2023-06-05T07:21:39;6.13;;;2.30;;
62687;SDS011;48752;51.056;17.056;2023-06-05T07:24:05;6.85;;;2.15;;
62687;SDS011;48752;51.056;17.056;2023-06-05T07:26:31;5.82;;;2.40;;
62687;SDS011;48752;51.056;17.056;2023-06-05T07:28:58;5.80;;;2.10;;
62687;SDS011;48752;51.056;17.056;2023-06-05T07:31:23;6.53;;;2.25;;
62687;SDS011;48752;51.056;17.056;2023-06-05T07:33:49;6.47;;;2.30;;
62687;SDS011;48752;51.056;17.056;2023-06-05T07:36:16;5.28;;;2.40;;
62687;SDS011;48752;51.056;17.056;2023-06-05T07:38:42;4.30;;;2.22;;
62687;SDS011;48752;51.056;17.056;2023-06-05T07:41:09;4.13;;;2.15;;
62687;SDS011;48752;51.056;17.056;2023-06-05T07:43:38;4.38;;;2.22;;
62687;SDS011;48752;51.056;17.056;2023-06-05T07:46:11;6.40;;;2.17;;
62687;SDS011;48752;51.056;17.056;2023-06-05T07:48:54;3.92;;;2.13;;
62687;SDS011;48752;51.056;17.056;2023-06-05T07:51:20;5.85;;;2.22;;
62687;SDS011;48752;51.056;17.056;2023-06-05T07:53:47;6.10;;;2.73;;
62687;SDS011;48752;51.056;17.056;2023-06-05T07:56:13;5.88;;;2.38;;
62687;SDS011;48752;51.056;17.056;2023-06-05T07:58:39;4.10;;;2.30;;
62687;SDS011;48752;51.056;17.056;2023-06-05T08:01:07;7.93;;;2.00;;
62687;SDS011;48752;51.056;17.056;2023-06-05T08:03:34;6.28;;;2.33;;
62687;SDS011;48752;51.056;17.056;2023-06-05T08:06:00;7.22;;;1.88;;
62687;SDS011;48752;51.056;17.056;2023-06-05T08:08:28;4.88;;;2.10;;
62687;SDS011;48752;51.056;17.056;2023-06-05T08:10:53;2.17;;;1.70;;
62687;SDS011;48752;51.056;17.056;2023-06-05T08:13:19;3.63;;;1.63;;
62687;SDS011;48752;51.056;17.056;2023-06-05T08:15:45;4.57;;;2.00;;
62687;SDS011;48752;51.056;17.056;2023-06-05T08:18:11;4.17;;;1.60;;
62687;SDS011;48752;51.056;17.056;2023-06-05T08:20:37;4.35;;;2.03;;
62687;SDS011;48752;51.056;17.056;2023-06-05T08:23:04;5.45;;;1.85;;
62687;SDS011;48752;51.056;17.056;2023-06-05T08:25:31;3.38;;;1.70;;
62687;SDS011;48752;51.056;17.056;2023-06-05T08:27:56;6.83;;;1.80;;
62687;SDS011;48752;51.056;17.056;2023-06-05T08:30:22;4.57;;;1.80;;
62687;SDS011;48752;51.056;17.056;2023-06-05T08:32:48;7.15;;;2.42;;
62687;SDS011;48752;51.056;17.056;2023-06-05T08:35:15;3.37;;;2.00;;
62687;SDS011;48752;51.056;17.056;2023-06-05T08:37:41;3.50;;;1.88;;
62687;SDS011;48752;51.056;17.056;2023-06-05T08:40:07;5.57;;;2.72;;
62687;SDS011;48752;51.056;17.056;2023-06-05T08:42:38;3.17;;;1.65;;
62687;SDS011;48752;51.056;17.056;2023-06-05T08:45:07;2.83;;;1.50;;
62687;SDS011;48752;51.056;17.056;2023-06-05T08:47:36;4.90;;;1.98;;
62687;SDS011;48752;51.056;17.056;2023-06-05T08:50:03;3.35;;;1.48;;
62687;SDS011;48752;51.056;17.056;2023-06-05T08:52:32;4.82;;;1.50;;
62687;SDS011;48752;51.056;17.056;2023-06-05T08:55:16;3.53;;;1.65;;
62687;SDS011;48752;51.056;17.056;2023-06-05T08:57:44;5.40;;;1.80;;
62687;SDS011;48752;51.056;17.056;2023-06-05T09:00:10;4.40;;;1.67;;
62687;SDS011;48752;51.056;17.056;2023-06-05T09:02:37;3.75;;;1.17;;
62687;SDS011;48752;51.056;17.056;2023-06-05T09:05:04;3.80;;;1.45;;
62687;SDS011;48752;51.056;17.056;2023-06-05T09:07:32;8.10;;;1.60;;
62687;SDS011;48752;51.056;17.056;2023-06-05T09:09:58;2.25;;;1.80;;
62687;SDS011;48752;51.056;17.056;2023-06-05T09:12:23;5.43;;;1.65;;
62687;SDS011;48752;51.056;17.056;2023-06-05T09:14:50;2.20;;;1.30;;
62687;SDS011;48752;51.056;17.056;2023-06-05T09:17:20;3.67;;;1.63;;
62687;SDS011;48752;51.056;17.056;2023-06-05T09:19:46;5.13;;;1.33;;
62687;SDS011;48752;51.056;17.056;2023-06-05T09:22:13;4.20;;;1.40;;
62687;SDS011;48752;51.056;17.056;2023-06-05T09:24:42;4.72;;;1.73;;
62687;SDS011;48752;51.056;17.056;2023-06-05T09:27:11;2.95;;;1.40;;
62687;SDS011;48752;51.056;17.056;2023-06-05T09:29:39;4.28;;;1.50;;
62687;SDS011;48752;51.056;17.056;2023-06-05T09:32:09;5.05;;;1.52;;
62687;SDS011;48752;51.056;17.056;2023-06-05T09:34:36;2.45;;;1.25;;
62687;SDS011;48752;51.056;17.056;2023-06-05T09:37:03;2.40;;;1.60;;
62687;SDS011;48752;51.056;17.056;2023-06-05T09:39:40;2.78;;;0.98;;
62687;SDS011;48752;51.056;17.056;2023-06-05T09:42:14;5.35;;;1.38;;
62687;SDS011;48752;51.056;17.056;2023-06-05T09:44:40;3.72;;;1.90;;
62687;SDS011;48752;51.056;17.056;2023-06-05T09:47:06;8.73;;;2.10;;
62687;SDS011;48752;51.056;17.056;2023-06-05T09:52:08;4.00;;;1.45;;
62687;SDS011;48752;51.056;17.056;2023-06-05T09:54:38;5.32;;;1.50;;
62687;SDS011;48752;51.056;17.056;2023-06-05T09:57:05;2.85;;;1.25;;
62687;SDS011;48752;51.056;17.056;2023-06-05T09:59:32;3.05;;;1.40;;
62687;SDS011;48752;51.056;17.056;2023-06-05T10:02:11;6.13;;;2.08;;
62687;SDS011;48752;51.056;17.056;2023-06-05T10:04:42;4.78;;;1.42;;
62687;SDS011;48752;51.056;17.056;2023-06-05T10:07:12;2.50;;;1.60;;
62687;SDS011;48752;51.056;17.056;2023-06-05T10:09:38;4.00;;;1.70;;
62687;SDS011;48752;51.056;17.056;2023-06-05T10:12:04;2.10;;;1.27;;
62687;SDS011;48752;51.056;17.056;2023-06-05T10:14:33;2.38;;;1.30;;
62687;SDS011;48752;51.056;17.056;2023-06-05T10:17:01;2.05;;;1.15;;
62687;SDS011;48752;51.056;17.056;2023-06-05T10:19:26;4.18;;;1.80;;
62687;SDS011;48752;51.056;17.056;2023-06-05T10:21:53;2.83;;;1.55;;
62687;SDS011;48752;51.056;17.056;2023-06-05T10:40:54;2.43;;;1.47;;
62687;SDS011;48752;51.056;17.056;2023-06-05T10:45:53;3.45;;;1.60;;
62687;SDS011;48752;51.056;17.056;2023-06-05T10:53:58;4.47;;;1.48;;
62687;SDS011;48752;51.056;17.056;2023-06-05T10:59:18;2.92;;;1.92;;
62687;SDS011;48752;51.056;17.056;2023-06-05T11:01:50;4.95;;;1.65;;
62687;SDS011;48752;51.056;17.056;2023-06-05T11:09:36;3.60;;;2.10;;
62687;SDS011;48752;51.056;17.056;2023-06-05T11:12:01;2.93;;;1.60;;
62687;SDS011;48752;51.056;17.056;2023-06-05T11:17:29;4.72;;;2.00;;
62687;SDS011;48752;51.056;17.056;2023-06-05T11:19:54;6.97;;;2.22;;
62687;SDS011;48752;51.056;17.056;2023-06-05T11:22:20;3.80;;;1.65;;
62687;SDS011;48752;51.056;17.056;2023-06-05T11:24:45;4.95;;;2.33;;
62687;SDS011;48752;51.056;17.056;2023-06-05T11:29:56;4.55;;;1.88;;
62687;SDS011;48752;51.056;17.056;2023-06-05T11:32:21;2.97;;;1.98;;
62687;SDS011;48752;51.056;17.056;2023-06-05T11:34:51;3.92;;;1.80;;
62687;SDS011;48752;51.056;17.056;2023-06-05T11:37:21;3.05;;;1.48;;
62687;SDS011;48752;51.056;17.056;2023-06-05T11:39:46;2.00;;;1.37;;
62687;SDS011;48752;51.056;17.056;2023-06-05T11:42:20;3.30;;;1.50;;
62687;SDS011;48752;51.056;17.056;2023-06-05T11:44:46;3.85;;;1.20;;
62687;SDS011;48752;51.056;17.056;2023-06-05T11:47:24;6.15;;;1.80;;
62687;SDS011;48752;51.056;17.056;2023-06-05T11:49:49;9.48;;;1.75;;
62687;SDS011;48752;51.056;17.056;2023-06-05T11:52:18;7.50;;;1.73;;
62687;SDS011;48752;51.056;17.056;2023-06-05T11:54:43;3.08;;;1.70;;
62687;SDS011;48752;51.056;17.056;2023-06-05T11:57:18;2.30;;;1.50;;
62687;SDS011;48752;51.056;17.056;2023-06-05T11:59:44;4.55;;;1.33;;
62687;SDS011;48752;51.056;17.056;2023-06-05T12:02:09;3.47;;;1.75;;
62687;SDS011;48752;51.056;17.056;2023-06-05T12:04:36;4.82;;;1.88;;
62687;SDS011;48752;51.056;17.056;2023-06-05T12:07:04;2.28;;;1.65;;
62687;SDS011;48752;51.056;17.056;2023-06-05T12:09:29;3.72;;;1.67;;
62687;SDS011;48752;51.056;17.056;2023-06-05T12:12:04;4.47;;;1.50;;
62687;SDS011;48752;51.056;17.056;2023-06-05T12:14:31;1.95;;;1.50;;
62687;SDS011;48752;51.056;17.056;2023-06-05T12:16:57;3.70;;;1.67;;
62687;SDS011;48752;51.056;17.056;2023-06-05T12:19:22;1.83;;;1.50;;
62687;SDS011;48752;51.056;17.056;2023-06-05T12:21:48;4.65;;;1.40;;
62687;SDS011;48752;51.056;17.056;2023-06-05T12:24:16;4.20;;;1.80;;
62687;SDS011;48752;51.056;17.056;2023-06-05T12:26:57;6.75;;;2.10;;
62687;SDS011;48752;51.056;17.056;2023-06-05T12:29:26;4.57;;;1.67;;
62687;SDS011;48752;51.056;17.056;2023-06-05T12:31:54;1.85;;;1.15;;
62687;SDS011;48752;51.056;17.056;2023-06-05T12:34:37;6.95;;;1.90;;
62687;SDS011;48752;51.056;17.056;2023-06-05T12:37:02;5.53;;;1.75;;
62687;SDS011;48752;51.056;17.056;2023-06-05T12:39:28;5.07;;;1.90;;
62687;SDS011;48752;51.056;17.056;2023-06-05T12:41:53;2.63;;;1.63;;
62687;SDS011;48752;51.056;17.056;2023-06-05T12:44:19;4.15;;;1.83;;
62687;SDS011;48752;51.056;17.056;2023-06-05T12:46:44;9.93;;;1.87;;
62687;SDS011;48752;51.056;17.056;2023-06-05T12:49:10;2.80;;;1.98;;
62687;SDS011;48752;51.056;17.056;2023-06-05T12:51:36;5.93;;;1.90;;
62687;SDS011;48752;51.056;17.056;2023-06-05T12:54:01;4.53;;;1.80;;
62687;SDS011;48752;51.056;17.056;2023-06-05T12:56:27;2.58;;;1.88;;
62687;SDS011;48752;51.056;17.056;2023-06-05T12:58:54;1.98;;;1.67;;
62687;SDS011;48752;51.056;17.056;2023-06-05T13:01:20;1.77;;;1.40;;
62687;SDS011;48752;51.056;17.056;2023-06-05T13:03:45;13.68;;;2.88;;
62687;SDS011;48752;51.056;17.056;2023-06-05T13:06:10;3.45;;;1.80;;
62687;SDS011;48752;51.056;17.056;2023-06-05T13:08:36;5.57;;;1.87;;
62687;SDS011;48752;51.056;17.056;2023-06-05T13:11:01;3.93;;;1.77;;
62687;SDS011;48752;51.056;17.056;2023-06-05T13:13:26;6.50;;;1.87;;
62687;SDS011;48752;51.056;17.056;2023-06-05T13:15:51;5.68;;;1.70;;
62687;SDS011;48752;51.056;17.056;2023-06-05T13:18:17;5.22;;;2.00;;
62687;SDS011;48752;51.056;17.056;2023-06-05T13:20:42;2.97;;;1.65;;
62687;SDS011;48752;51.056;17.056;2023-06-05T13:23:07;2.90;;;1.77;;
62687;SDS011;48752;51.056;17.056;2023-06-05T13:25:35;1.58;;;1.25;;
62687;SDS011;48752;51.056;17.056;2023-06-05T13:28:00;5.80;;;1.88;;
62687;SDS011;48752;51.056;17.056;2023-06-05T13:30:25;2.83;;;1.50;;
62687;SDS011;48752;51.056;17.056;2023-06-05T13:32:51;5.53;;;1.90;;
62687;SDS011;48752;51.056;17.056;2023-06-05T13:35:19;7.00;;;1.80;;
62687;SDS011;48752;51.056;17.056;2023-06-05T13:37:44;4.20;;;1.73;;
62687;SDS011;48752;51.056;17.056;2023-06-05T13:40:10;6.00;;;2.22;;
62687;SDS011;48752;51.056;17.056;2023-06-05T13:42:35;3.25;;;1.60;;
62687;SDS011;48752;51.056;17.056;2023-06-05T13:45:01;2.10;;;1.55;;
62687;SDS011;48752;51.056;17.056;2023-06-05T13:47:26;4.43;;;1.60;;
62687;SDS011;48752;51.056;17.056;2023-06-05T13:49:51;2.60;;;1.43;;
62687;SDS011;48752;51.056;17.056;2023-06-05T13:52:18;3.85;;;1.80;;
62687;SDS011;48752;51.056;17.056;2023-06-05T13:54:44;1.83;;;1.58;;
62687;SDS011;48752;51.056;17.056;2023-06-05T13:57:09;3.60;;;2.00;;
62687;SDS011;48752;51.056;17.056;2023-06-05T13:59:35;6.40;;;1.92;;
62687;SDS011;48752;51.056;17.056;2023-06-05T14:02:00;3.72;;;1.90;;
62687;SDS011;48752;51.056;17.056;2023-06-05T14:04:26;3.97;;;2.67;;
62687;SDS011;48752;51.056;17.056;2023-06-05T14:06:52;2.88;;;1.60;;
62687;SDS011;48752;51.056;17.056;2023-06-05T14:09:20;5.03;;;1.80;;
62687;SDS011;48752;51.056;17.056;2023-06-05T14:11:45;3.50;;;1.48;;
62687;SDS011;48752;51.056;17.056;2023-06-05T14:14:10;2.10;;;1.30;;
62687;SDS011;48752;51.056;17.056;2023-06-05T14:16:36;5.23;;;2.30;;
62687;SDS011;48752;51.056;17.056;2023-06-05T14:19:01;3.40;;;1.75;;
62687;SDS011;48752;51.056;17.056;2023-06-05T14:21:27;4.80;;;1.70;;
62687;SDS011;48752;51.056;17.056;2023-06-05T14:23:52;4.57;;;1.33;;
62687;SDS011;48752;51.056;17.056;2023-06-05T14:26:17;2.87;;;1.90;;
62687;SDS011;48752;51.056;17.056;2023-06-05T14:28:42;2.97;;;1.80;;
62687;SDS011;48752;51.056;17.056;2023-06-05T14:31:08;2.73;;;2.43;;
62687;SDS011;48752;51.056;17.056;2023-06-05T14:33:33;5.13;;;2.00;;
62687;SDS011;48752;51.056;17.056;2023-06-05T14:35:58;4.60;;;1.83;;
62687;SDS011;48752;51.056;17.056;2023-06-05T14:38:24;2.72;;;2.03;;
62687;SDS011;48752;51.056;17.056;2023-06-05T14:40:49;2.78;;;1.70;;
62687;SDS011;48752;51.056;17.056;2023-06-05T14:43:16;4.55;;;1.75;;
62687;SDS011;48752;51.056;17.056;2023-06-05T14:45:41;11.18;;;1.90;;
62687;SDS011;48752;51.056;17.056;2023-06-05T14:48:07;5.90;;;1.95;;
62687;SDS011;48752;51.056;17.056;2023-06-05T14:50:35;4.38;;;1.60;;
62687;SDS011;48752;51.056;17.056;2023-06-05T14:53:00;3.63;;;2.00;;
62687;SDS011;48752;51.056;17.056;2023-06-05T14:55:26;5.80;;;1.73;;
62687;SDS011;48752;51.056;17.056;2023-06-05T14:57:51;4.80;;;1.60;;
62687;SDS011;48752;51.056;17.056;2023-06-05T15:00:16;2.07;;;1.80;;
62687;SDS011;48752;51.056;17.056;2023-06-05T15:02:42;4.95;;;1.80;;
62687;SDS011;48752;51.056;17.056;2023-06-05T15:05:07;2.33;;;1.77;;
62687;SDS011;48752;51.056;17.056;2023-06-05T15:07:36;4.55;;;2.08;;
62687;SDS011;48752;51.056;17.056;2023-06-05T15:10:02;5.55;;;1.73;;
62687;SDS011;48752;51.056;17.056;2023-06-05T15:12:28;3.35;;;1.88;;
62687;SDS011;48752;51.056;17.056;2023-06-05T15:14:53;7.25;;;1.70;;